Stations météo

réclame
Mon MeteoGroup
Heino aws, Pays-Bas (6278): Température de l'air & dewpoint: 14.06.2018 09:00:00 - 20.06.2018 09:00:00 (CEST)Heino aws, Pays-Bas (6278): Température de l'air 5cm: 14.06.2018 09:00:00 - 20.06.2018 09:00:00 (CEST)Heino aws, Pays-Bas (6278): Vitesse du vent & gusts: 14.06.2018 09:00:00 - 20.06.2018 09:00:00 (CEST)Heino aws, Pays-Bas (6278): Direction du vent: 14.06.2018 09:00:00 - 20.06.2018 09:00:00 (CEST)Heino aws, Pays-Bas (6278): Quantités de précipitations: 14.06.2018 09:00:00 - 20.06.2018 09:00:00 (CEST)
Date & Time tt [°C] td [°C] tt 5cm [°C] ff [km/h] ff [knt] fx [km/h] fx [knt] dd rr [mm]
20.06.2018 09:00:00 19,3 16,1 19,9 14 8 22 12 SW 0,0
20.06.2018 08:00:00 17,7 15,7 18,3 14 8 22 12 SW 0,0
20.06.2018 07:00:00 16,2 15,5 15,9 7 4 11 6 SSW 0,0
20.06.2018 06:00:00 15,2 15,0 14,3 7 4 11 6 SSW 0,0
20.06.2018 05:00:00 14,3 14,2 12,0 4 2 7 4 S 0,0
20.06.2018 04:00:00 14,4 14,2 11,5 4 2 11 6 S 0,0
20.06.2018 03:00:00 15,6 15,0 12,4 7 4 11 6 S 0,0
20.06.2018 02:00:00 15,6 15,0 12,5 4 2 7 4 SSW 0,0
20.06.2018 01:00:00 16,8 15,4 14,6 4 2 7 4 S 0,0
20.06.2018 00:00:00 18,1 15,6 17,4 4 2 7 4 SW 0,0
19.06.2018 23:00:00 18,3 16,0 17,6 4 2 7 4 SSW 0,0
19.06.2018 22:00:00 18,5 16,3 18,0 4 2 11 6 SW 0,0
19.06.2018 21:00:00 19,2 15,7 19,0 7 4 14 8 SW 0,0
19.06.2018 20:00:00 19,8 15,4 19,8 11 6 18 10 WSW 0,0
19.06.2018 19:00:00 20,0 15,2 20,1 11 6 22 12 WSW 0,0
19.06.2018 18:00:00 19,8 15,6 20,2 11 6 22 12 SW 0,0
19.06.2018 17:00:00 20,2 15,5 21,4 14 8 22 12 WSW 0,0
19.06.2018 16:00:00 20,1 16,0 21,0 7 4 18 10 WSW 0,0
19.06.2018 15:00:00 20,1 14,5 21,8 7 4 18 10 W 0,0
19.06.2018 14:00:00 18,6 16,3 19,4 11 6 22 12 W 0,0
19.06.2018 13:00:00 18,2 16,1 18,9 11 6 22 12 W 0,0
19.06.2018 12:00:00 18,4 16,2 18,9 14 8 29 16 W 0,0
19.06.2018 11:00:00 18,2 16,2 18,6 18 10 25 14 W 0,0
19.06.2018 10:00:00 17,6 16,0 17,8 14 8 32 18 WSW 0,0
19.06.2018 09:00:00 17,2 15,3 17,5 14 8 22 12 WSW 0,0
19.06.2018 08:00:00 16,7 14,6 16,8 11 6 22 12 SW 0,0
19.06.2018 07:00:00 16,1 13,8 16,0 14 8 22 12 SW 0,0
19.06.2018 06:00:00 15,8 13,2 15,6 11 6 22 12 SW 0,0
19.06.2018 05:00:00 15,7 12,9 15,4 14 8 22 12 SW 0,0
19.06.2018 04:00:00 15,6 12,6 15,3 14 8 25 14 SW 0,0
19.06.2018 03:00:00 15,3 12,2 14,8 14 8 22 12 SW 0,0
19.06.2018 02:00:00 14,8 12,3 14,0 7 4 18 10 S 0,0
19.06.2018 01:00:00 15,2 12,5 14,4 7 4 14 8 SSW 0,0
19.06.2018 00:00:00 15,3 12,5 14,4 7 4 14 8 SSW 0,0
18.06.2018 23:00:00 15,4 12,6 14,3 7 4 14 8 SW 0,0
18.06.2018 22:00:00 16,9 13,1 15,8 11 6 18 10 WSW 0,0
18.06.2018 21:00:00 17,8 13,5 17,4 11 6 25 14 WSW 0,0
18.06.2018 20:00:00 18,8 13,6 18,7 14 8 29 16 WSW 0,0
18.06.2018 19:00:00 18,4 13,9 18,5 22 12 32 18 WSW 0,0
18.06.2018 18:00:00 18,1 14,8 18,3 14 8 32 18 WSW 0,0
18.06.2018 17:00:00 18,5 14,8 18,9 14 8 32 18 SW 0,0
18.06.2018 16:00:00 18,6 15,7 19,1 18 10 40 21 SW 0,0
18.06.2018 15:00:00 18,2 16,5 18,4 22 12 32 18 SW 0,0
18.06.2018 14:00:00 17,5 16,1 18,2 14 8 29 16 SW 0,2
18.06.2018 13:00:00 17,0 16,2 17,4 11 6 32 18 SSW 0,1
18.06.2018 12:00:00 17,5 14,5 17,8 18 10 29 16 SW 0,0
18.06.2018 11:00:00 18,0 13,9 18,4 18 10 32 18 SW 0,0
18.06.2018 10:00:00 17,3 13,5 17,4 14 8 25 14 SW 0,0
18.06.2018 09:00:00 16,4 13,4 16,4 11 6 22 12 SSW 0,0
18.06.2018 08:00:00 14,9 13,1 14,8 7 4 22 12 S 0,0
18.06.2018 07:00:00 14,3 12,9 14,2 7 4 18 10 S 0,0
18.06.2018 06:00:00 14,2 12,6 14,1 11 6 25 14 S 0,0
18.06.2018 05:00:00 14,3 12,2 14,0 11 6 18 10 SSW 0,0
18.06.2018 04:00:00 14,1 12,2 13,5 7 4 14 8 S 0,0
18.06.2018 03:00:00 13,3 12,1 12,2 7 4 11 6 S 0,0
18.06.2018 02:00:00 12,2 11,7 9,8 4 2 11 6 S 0,0
18.06.2018 01:00:00 12,5 11,7 10,1 4 2 7 4 S 0,0
18.06.2018 00:00:00 14,0 12,0 13,4 4 2 11 6 SSW 0,0
17.06.2018 23:00:00 14,1 11,7 13,5 7 4 11 6 SSW 0,0
17.06.2018 22:00:00 14,1 11,9 13,6 7 4 11 6 SSW 0,0
17.06.2018 21:00:00 14,5 12,6 14,3 7 4 14 8 SSW 0,0
17.06.2018 20:00:00 14,7 12,6 14,9 7 4 18 10 SSW 0,0
17.06.2018 19:00:00 13,8 12,0 13,8 14 8 29 16 WSW 0,4
17.06.2018 18:00:00 16,7 11,7 16,8 7 4 29 16 W 0,0
17.06.2018 17:00:00 18,5 10,8 19,4 18 10 29 16 SW 0,0
17.06.2018 16:00:00 18,8 11,0 20,4 14 8 25 14 W 0,0
17.06.2018 15:00:00 17,2 10,7 17,5 11 6 29 16 WSW 0,0
17.06.2018 14:00:00 17,0 11,0 17,1 18 10 29 16 SW 0,0
17.06.2018 13:00:00 17,7 11,1 18,1 18 10 32 18 WSW 0,0
17.06.2018 12:00:00 17,9 11,2 18,2 22 12 36 19 WSW 0,0
17.06.2018 11:00:00 17,7 11,8 18,0 25 14 36 19 SW 0,0
17.06.2018 10:00:00 16,8 12,3 17,5 22 12 32 18 SW 0,0
17.06.2018 09:00:00 16,5 12,3 16,8 18 10 29 16 SW 0,0
17.06.2018 08:00:00 15,2 11,4 15,4 14 8 25 14 SSW 0,0
17.06.2018 07:00:00 14,7 10,8 14,2 14 8 22 12 SW 0,0
17.06.2018 06:00:00 14,0 10,5 13,3 11 6 22 12 SW 0,0
17.06.2018 05:00:00 14,7 10,6 14,0 7 4 14 8 SSW 0,0
17.06.2018 04:00:00 14,9 10,7 14,3 7 4 14 8 SSW 0,0
17.06.2018 03:00:00 14,6 10,1 13,9 7 4 14 8 SSW 0,0
17.06.2018 02:00:00 13,8 9,8 11,7 7 4 14 8 SSW 0,0
17.06.2018 01:00:00 14,4 10,0 12,3 7 4 11 6 SSW 0,0
17.06.2018 00:00:00 15,1 10,3 13,8 7 4 11 6 WSW 0,0
16.06.2018 23:00:00 15,2 10,9 12,8 7 4 11 6 SW 0,0
16.06.2018 22:00:00 15,5 12,5 14,3 4 2 11 6 WSW 0,0
16.06.2018 21:00:00 17,5 11,5 17,0 4 2 14 8 WNW 0,0
16.06.2018 20:00:00 18,2 11,4 17,9 7 4 25 14 WNW 0,0
16.06.2018 19:00:00 19,5 12,2 19,4 18 10 32 18 W 0,0
16.06.2018 18:00:00 21,2 11,2 22,1 14 8 25 14 WNW 0,0
16.06.2018 17:00:00 22,5 8,6 23,1 14 8 29 16 W 0,0
16.06.2018 16:00:00 22,9 8,8 22,7 18 10 29 16 W 0,0
16.06.2018 15:00:00 22,1 9,9 22,2 14 8 29 16 SW 0,0
16.06.2018 14:00:00 21,5 12,4 22,0 14 8 25 14 SW 0,0
16.06.2018 13:00:00 20,9 12,6 22,0 11 6 22 12 SW 0,0
16.06.2018 12:00:00 20,6 12,8 21,8 14 8 22 12 WSW 0,0
16.06.2018 11:00:00 19,9 14,0 21,5 7 4 14 8 SSW 0,0
16.06.2018 10:00:00 18,9 13,8 20,2 11 6 14 8 SW 0,0
16.06.2018 09:00:00 17,4 14,1 17,8 7 4 11 6 S 0,0
16.06.2018 08:00:00 16,1 14,1 16,0 4 2 7 4 WSW 0,0
16.06.2018 07:00:00 14,4 13,3 14,2 4 2 4 2 ENE 0,0
16.06.2018 06:00:00 12,5 12,4 11,3 4 2 4 2 SW 0,0
16.06.2018 05:00:00 13,1 12,5 11,7 4 2 14 8 NE 0,0
16.06.2018 04:00:00 12,7 12,1 11,8 7 4 14 8 WSW 0,0
16.06.2018 03:00:00 13,0 12,7 11,0 4 2 4 2 WSW 0,0
16.06.2018 02:00:00 13,7 12,1 11,3 4 2 7 4 E 0,0
16.06.2018 01:00:00 13,0 12,4 10,4 0 0 4 2 N 0,0
16.06.2018 00:00:00 12,9 12,5 9,9 0 0 4 2 N 0,0
15.06.2018 23:00:00 13,8 12,5 10,8 0 0 4 2 N 0,0
15.06.2018 22:00:00 18,5 11,6 15,7 4 2 11 6 N 0,0
15.06.2018 21:00:00 20,1 12,5 19,6 7 4 18 10 NNW 0,0
15.06.2018 20:00:00 21,4 14,5 21,7 4 2 7 4 N 0,0
15.06.2018 19:00:00 21,0 14,3 20,9 4 2 11 6 N 0,0
15.06.2018 18:00:00 21,7 12,7 22,5 7 4 11 6 NW 0,0
15.06.2018 17:00:00 21,7 13,4 22,5 4 2 14 8 NNE 0,0
15.06.2018 16:00:00 20,9 13,3 21,4 4 2 11 6 NW 0,0
15.06.2018 15:00:00 21,2 14,5 22,2 7 4 18 10 NNE 0,0
15.06.2018 14:00:00 21,1 13,0 22,4 4 2 14 8 WSW 0,0
15.06.2018 13:00:00 20,7 14,0 22,4 7 4 14 8 ESE 0,0
15.06.2018 12:00:00 20,3 14,5 22,0 4 2 11 6 S 0,0
15.06.2018 11:00:00 18,6 14,1 20,1 4 2 14 8 SSE 0,0
15.06.2018 10:00:00 17,7 14,6 18,7 7 4 11 6 SE 0,0
15.06.2018 09:00:00 16,4 14,4 17,1 7 4 11 6 SE 0,0
15.06.2018 08:00:00 15,3 15,1 15,7 4 2 7 4 E 0,0
15.06.2018 07:00:00 14,3 14,3 14,2 0 0 4 2 N 0,0
15.06.2018 06:00:00 13,1 13,0 12,8 0 0 7 4 N 0,0
15.06.2018 05:00:00 12,0 11,9 10,3 4 2 4 2 E 0,0
15.06.2018 04:00:00 12,8 12,7 10,8 0 0 4 2 N 0,0
15.06.2018 03:00:00 13,8 13,7 12,8 4 2 4 2 SE 0,0
15.06.2018 02:00:00 14,4 14,1 13,6 4 2 11 6 SW 0,0
15.06.2018 01:00:00 14,6 14,3 14,3 7 4 11 6 W 0,0
15.06.2018 00:00:00 15,3 14,9 15,1 7 4 18 10 SW 0,3
14.06.2018 23:00:00 15,4 14,7 15,1 7 4 18 10 SW 0,0
14.06.2018 22:00:00 15,5 14,5 15,3 11 6 14 8 SSW 0,0
14.06.2018 21:00:00 15,6 14,9 15,6 7 4 18 10 SW 0,0
14.06.2018 20:00:00 15,4 15,0 15,5 11 6 14 8 SSW 0,1
14.06.2018 19:00:00 15,2 14,4 15,3 11 6 32 18 SW 0,2
14.06.2018 18:00:00 16,9 13,0 16,8 11 6 25 14 SSW 0,0
14.06.2018 17:00:00 17,0 12,8 17,1 11 6 29 16 S 0,0
14.06.2018 16:00:00 16,4 13,5 16,1 11 6 25 14 SSW 0,3
14.06.2018 15:00:00 17,2 12,6 17,4 18 10 32 18 SSW 0,2
14.06.2018 14:00:00 19,6 10,1 20,1 18 10 40 21 SSW 0,0
14.06.2018 13:00:00 19,9 9,8 20,8 22 12 36 19 SSW 0,0
14.06.2018 12:00:00 20,5 9,9 22,0 18 10 36 19 SW 0,0
14.06.2018 11:00:00 19,5 9,7 21,0 18 10 36 19 SSW 0,0
14.06.2018 10:00:00 18,5 9,6 19,8 14 8 29 16 S 0,0
14.06.2018 09:00:00 17,3 10,9 17,5 11 6 22 12 SSW 0,0

tt = Température de l'air
td = dewpoint
tt 5cm = Température de l'air 5cm
ff = Vitesse du vent
fx = gusts
dd = Direction du vent
rr = Quantités de précipitations

stations d'obs. à proximité